Carrying Place Town Township, Maine
Current Conditions -  °F | °C
As of 4:55 AM on Sunday 21 Dec 2014 (Local Time) from KWVL Reporting Station
Broken Clouds Broken Clouds  
Wind Chill: 12°   Ceiling: 3100
Heat Index: 21°   Visibility: 10mi
Dew Point: 14°   Wind: 8mph
Humidity: 74%   Direction: 10°N
Pressure: 30.3"   Gusts: NA
Location:  45.0341°N, 70.0886°W
Report Text: KWVL 210955Z 01007KT 10SM BKN031 M06/M10 A3030 RMK AO1
Loading
Personal Weather Stations






























Interactive Weather Map New forecast layout! Learn more

10-Day Weather Forecast

Advertisements
Track Severe Weather on mobile